• Join FlightAware (Why Join?)
  • Login
  • US Flag 
11:06PM EDT


 

Airport Tracker/Info


-or-


 

Live Flight TrackerFlight Track Log ✈ USC105 ✈ 10-Apr-2013 ✈ KYIP - KDPA

Flight Track Log - Related Links

Times and Time Zones

All times are in EDT time to prevent confusion due to time zone crossing. See the USC105 flight status page for this flight to view local times or setup timezone preferences in your user account.

Time Position Orientation Groundspeed Altitude Reporting Facility
EDT Latitude Longitude Course Direction KTS MPH feet Rate Location/Type
12:06AM 42.2392 -83.5672 264° West 145 167 1,500  Level FAA TRACON SMA TRACON (SMA)
12:06AM 42.2356 -83.5886 257° West 152 175 1,800 600 Climbing FAA TRACON SMA TRACON (SMA)
12:07AM 42.2347 -83.6067 266° West 156 180 1,900 420 Climbing FAA TRACON SMA TRACON (SMA)
12:07AM 42.2342 -83.6256 268° West 162 186 2,100 600 Climbing FAA TRACON SMA TRACON (SMA)
12:07AM 42.2336 -83.6447 268° West 165 190 2,300 600 Climbing FAA TRACON SMA TRACON (SMA)
12:08AM 42.2325 -83.6697 267° West 170 196 2,500 720 Climbing FAA TRACON SMA TRACON (SMA)
12:08AM 42.2322 -83.6886 269° West 168 193 2,800 720 Climbing FAA TRACON SMA TRACON (SMA)
12:08AM 42.2319 -83.7144 269° West 175 201 3,000 600 Climbing FAA TRACON SMA TRACON (SMA)
12:09AM 42.2328 -83.7344 273° West 175 201 3,200 600 Climbing FAA TRACON SMA TRACON (SMA)
12:09AM 42.2322 -83.7550 268° West 174 200 3,400 600 Climbing FAA TRACON SMA TRACON (SMA)
12:09AM 42.2317 -83.7747 268° West 173 199 3,600 720 Climbing FAA TRACON SMA TRACON (SMA)
12:10AM 42.2303 -83.8000 266° West 175 201 3,900 720 Climbing FAA TRACON SMA TRACON (SMA)
12:10AM 42.2300 -83.8197 269° West 172 198 4,100 720 Climbing FAA TRACON SMA TRACON (SMA)
12:10AM 42.2292 -83.8386 267° West 167 192 4,400 900 Climbing FAA TRACON SMA TRACON (SMA)
12:11AM 42.2286 -83.8619 268° West 162 186 4,700 720 Climbing FAA TRACON SMA TRACON (SMA)
12:11AM 42.2278 -83.8786 266° West 151 174 4,900 600 Climbing FAA TRACON SMA TRACON (SMA)
12:11AM 42.2269 -83.9003 267° West 150 173 5,100 300 Climbing FAA TRACON SMA TRACON (SMA)
12:12AM 42.2267 -83.9186 269° West 156 180 5,100 120 Level FAA TRACON SMA TRACON (SMA)
12:12AM 42.2247 -83.9372 262° West 160 184 5,200 300 Climbing FAA TRACON SMA TRACON (SMA)
12:12AM 42.2231 -83.9564 263° West 163 188 5,300 300 Climbing FAA TRACON SMA TRACON (SMA)
12:13AM 42.2208 -83.9797 263° West 163 188 5,400 300 Climbing FAA TRACON SMA TRACON (SMA)
12:13AM 42.2194 -83.9986 264° West 163 188 5,500 300 Climbing FAA TRACON SMA TRACON (SMA)
12:13AM 42.2181 -84.0169 264° West 161 185 5,600 420 Climbing FAA TRACON SMA TRACON (SMA)
12:14AM 42.2158 -84.0400 263° West 161 185 5,800 300 Climbing FAA TRACON SMA TRACON (SMA)
12:14AM 42.2139 -84.0583 262° West 160 184 5,800 120 Level FAA TRACON SMA TRACON (SMA)
12:14AM 42.2119 -84.0767 262° West 160 184 5,900 60 Climbing FAA TRACON SMA TRACON (SMA)
12:15AM 42.2089 -84.1189 264° West 165 190 5,900  Level FAA TRACON SMA TRACON (SMA)
12:15AM 42.2081 -84.1378 267° West 165 190 5,900  Level FAA TRACON SMA TRACON (SMA)
12:16AM 42.2069 -84.1619 266° West 167 192 5,900  Level FAA TRACON SMA TRACON (SMA)
12:16AM 42.2058 -84.1817 266° West 169 194 5,900  Level FAA TRACON SMA TRACON (SMA)
12:16AM 42.2044 -84.2014 265° West 170 196 5,900  Level FAA TRACON SMA TRACON (SMA)
12:17AM 42.2028 -84.2258 265° West 170 196 5,900  Level FAA TRACON SMA TRACON (SMA)
12:17AM 42.2014 -84.2453 264° West 170 196 5,900  Level FAA TRACON SMA TRACON (SMA)
12:17AM 42.2006 -84.2653 267° West 172 198 5,900  Level FAA TRACON SMA TRACON (SMA)
12:18AM 42.1992 -84.2908 266° West 175 201 5,900  Level FAA TRACON SMA TRACON (SMA)
12:18AM 42.1981 -84.3114 266° West 177 204 5,900  Level FAA TRACON SMA TRACON (SMA)
12:18AM 42.1969 -84.3319 266° West 178 205 5,900  Level FAA TRACON SMA TRACON (SMA)
12:19AM 42.1969 -84.3578 270° West 178 205 5,900  Level FAA TRACON SMA TRACON (SMA)
12:19AM 42.1967 -84.3781 269° West 177 204 5,900  Level FAA TRACON SMA TRACON (SMA)
12:19AM 42.1947 -84.3983 263° West 176 203 5,900  Level FAA TRACON SMA TRACON (SMA)
12:20AM 42.1914 -84.4231 260° West 176 203 5,900  Level FAA TRACON SMA TRACON (SMA)
12:20AM 42.1903 -84.4433 266° West 175 201 5,900  Level FAA TRACON SMA TRACON (SMA)
12:20AM 42.1894 -84.4636 267° West 175 201 5,900  Level FAA TRACON SMA TRACON (SMA)
12:21AM 42.1881 -84.4889 266° West 176 203 5,900  Level FAA TRACON SMA TRACON (SMA)
12:21AM 42.1869 -84.5092 266° West 177 204 5,900  Level FAA TRACON SMA TRACON (SMA)
12:21AM 42.1861 -84.5297 267° West 178 205 5,900  Level FAA TRACON SMA TRACON (SMA)
12:22AM 42.1853 -84.5453 266° West 178 205 5,900 -60 Level FAA TRACON SMA TRACON (SMA)
12:23AM 42.1769 -84.6658 265° West 184 212 5,800  Descending Chicago Center
12:24AM 42.1736 -84.7344 266° West 186 214 5,900  Climbing Chicago Center
12:25AM 42.1692 -84.8028 265° West 184 212 5,800 -60 Descending Chicago Center
12:26AM 42.1656 -84.8719 266° West 185 213 5,800  Level Chicago Center
12:27AM 42.1608 -84.9403 265° West 185 213 5,800  Level Chicago Center
12:28AM 42.1575 -85.0072 266° West 182 209 5,800  Level Chicago Center
12:29AM 42.1522 -85.0758 264° West 184 212 5,800  Level Chicago Center
12:31AM 42.1486 -85.1442 266° West 185 213 5,800  Level Chicago Center
12:32AM 42.1442 -85.2122 265° West 183 211 5,900  Climbing Chicago Center
12:33AM 42.1383 -85.2939 265° West 183 211 5,800  Descending Chicago Center
12:34AM 42.1336 -85.3628 265° West 186 214 5,900  Climbing Chicago Center
12:35AM 42.1292 -85.4314 265° West 185 213 5,800 -60 Descending Chicago Center
12:36AM 42.1247 -85.4992 265° West 184 212 5,800  Level Chicago Center
12:37AM 42.1197 -85.5661 264° West 182 209 5,800  Level Chicago Center
12:38AM 42.1153 -85.6339 265° West 182 209 5,800  Level Chicago Center
12:39AM 42.1111 -85.7028 265° West 184 212 5,900  Climbing Chicago Center
12:40AM 42.1061 -85.7703 264° West 184 212 5,900  Level Chicago Center
12:41AM 42.1006 -85.8392 264° West 185 213 5,900 -60 Level Chicago Center
12:42AM 42.0961 -85.9083 265° West 185 213 5,800 -60 Descending Chicago Center
12:43AM 42.0908 -85.9772 264° West 186 214 5,800  Level Chicago Center
12:44AM 42.0861 -86.0481 265° West 189 217 5,800  Level Chicago Center
12:45AM 42.0808 -86.1169 264° West 187 215 5,800  Level Chicago Center
12:46AM 42.0750 -86.2003 265° West 187 215 5,900  Climbing Chicago Center
12:47AM 42.0700 -86.2722 265° West 191 220 5,900 -60 Level Chicago Center
12:48AM 42.0642 -86.3447 264° West 195 224 5,800  Descending Chicago Center
12:49AM 42.0597 -86.4158 265° West 192 221 5,900  Climbing Chicago Center
12:50AM 42.0536 -86.4872 263° West 193 222 5,900  Level Chicago Center
12:51AM 42.0489 -86.5586 265° West 193 222 5,900  Level Chicago Center
12:52AM 42.0431 -86.6300 264° West 193 222 5,900  Level Chicago Center
12:53AM 42.0375 -86.7006 264° West 191 220 5,900  Level Chicago Center
12:54AM 42.0322 -86.7769 265° West 192 221 5,900  Level Chicago Center
12:55AM 42.0269 -86.8478 264° West 191 220 5,900  Level Chicago Center
12:56AM 42.0214 -86.9183 264° West 192 221 5,900  Level Chicago Center
12:57AM 42.0144 -86.9892 263° West 192 221 5,900 -60 Level Chicago Center
12:58AM 42.0092 -87.0614 264° West 194 223 5,800  Descending Chicago Center
12:59AM 41.9931 -87.1294 252° West 194 223 5,900  Climbing Chicago Center
01:00AM 41.9700 -87.1939 244° Southwest 192 221 5,900  Level Chicago Center
01:01AM 41.9461 -87.2731 248° West 193 222 5,900 -60 Level Chicago Center
01:02AM 41.9250 -87.3383 247° West 193 222 5,800  Descending Chicago Center
01:03AM 41.9000 -87.4000 241° Southwest 195 224 5,900  Climbing Chicago TRACON
01:04AM 41.8833 -87.4667 251° West 189 217 5,900  Level Chicago TRACON
01:05AM 41.8667 -87.5333 251° West 186 214 5,900 -300 Level Chicago TRACON
01:06AM 41.8333 -87.5833 228° Southwest 199 229 5,400 -540 Descending Chicago TRACON
01:07AM 41.8167 -87.6500 251° West 207 238 4,900 -600 Descending Chicago TRACON
01:08AM 41.7833 -87.7333 242° Southwest 215 247 4,200 -480 Descending Chicago TRACON
01:09AM 41.7500 -87.8000 236° Southwest 208 239 3,900 -180 Descending Chicago TRACON
01:10AM 41.7333 -87.8667 251° West 195 224 3,900  Level Chicago TRACON
01:11AM 41.7167 -87.9333 252° West 192 221 3,900 -240 Level Chicago TRACON
01:12AM 41.7000 -88.0000 252° West 197 227 3,500 -420 Descending Chicago TRACON
01:13AM 41.6717 -88.0828 245° Southwest 195 224 3,100 -240 Descending Chicago Center
01:14AM 41.6711 -88.1511 269° West 193 222 3,000 -300 Descending Chicago Center
01:15AM 41.6944 -88.2128 297° West 190 219 2,500 -300 Descending Chicago Center
01:16AM 41.7197 -88.2733 299° West 189 217 2,500  Level Chicago Center
01:17AM 41.7619 -88.2969 337° Northwest 180 207 2,500  Level Chicago Center
01:18AM 41.8042 -88.2844 12° North 166 191 2,500 -360 Level Chicago Center
01:19AM 41.8381 -88.2731 14° North 146 168 1,800 -540 Descending Chicago Center
01:20AM 41.8631 -88.2647 14° North 116 133 1,500 -360 Descending Chicago Center
01:21AM 41.8914 -88.2544 15° North 106 122 1,100 -420 Descending Chicago Center